Time;durP1;ratioP1;P1;durP2;ratioP2;P2;SDS_P1;SDS_P2;PMS_P1;PMS_P2;Temp;Humidity;BMP_temperature;BMP_pressure;BME280_temperature;BME280_humidity;BME280_pressure;Samples;Min_cycle;Max_cycle;Signal;HPM_P1;HPM_P2
2023/10/27 00:00:25;;;;;;;3.92;2.92;;;;;;;15.48;100.00;98328.19;6364087;27;20048;-74
2023/10/27 00:03:26;;;;;;;5.32;3.17;;;;;;;15.30;100.00;98319.66;6366491;27;20054;-73
2023/10/27 00:06:32;;;;;;;9.25;3.60;;;;;;;15.29;100.00;98310.13;6356102;27;20066;-73
2023/10/27 00:09:35;;;;;;;6.03;2.85;;;;;;;15.29;100.00;98302.25;6363722;27;20054;-73
2023/10/27 00:12:36;;;;;;;12.68;3.28;;;;;;;15.28;100.00;98306.69;6367848;27;20055;-73
2023/10/27 00:15:37;;;;;;;4.80;2.97;;;;;;;15.32;100.00;98309.81;6359030;27;20040;-73
2023/10/27 00:18:40;;;;;;;6.97;3.40;;;;;;;15.37;100.00;98314.56;6357609;27;20052;-74
2023/10/27 00:21:41;;;;;;;7.60;2.97;;;;;;;15.36;100.00;98316.38;6354224;27;20058;-73
2023/10/27 00:24:42;;;;;;;5.30;2.85;;;;;;;15.47;100.00;98310.75;6353179;27;20039;-73
2023/10/27 00:27:43;;;;;;;6.90;3.35;;;;;;;15.50;100.00;98301.69;6364353;27;20099;-73
2023/10/27 00:30:44;;;;;;;6.30;3.25;;;;;;;15.47;100.00;98302.06;6353967;27;20415;-73
2023/10/27 00:33:47;;;;;;;5.60;2.63;;;;;;;15.48;100.00;98315.03;6347547;27;20517;-73
2023/10/27 00:36:49;;;;;;;4.38;3.00;;;;;;;15.51;100.00;98304.16;6369787;27;20494;-73
2023/10/27 00:39:49;;;;;;;5.07;2.75;;;;;;;15.60;100.00;98296.28;6363800;27;20051;-73
2023/10/27 00:42:56;;;;;;;7.78;3.10;;;;;;;15.47;100.00;98279.22;6371976;27;20402;-73
2023/10/27 00:45:58;;;;;;;6.60;3.25;;;;;;;15.44;100.00;98291.88;6351577;28;20399;-73
2023/10/27 00:49:00;;;;;;;5.40;2.97;;;;;;;15.54;100.00;98279.34;6350939;28;20052;-74
2023/10/27 00:52:04;;;;;;;4.38;3.20;;;;;;;15.62;100.00;98281.16;6358056;27;20138;-74
2023/10/27 00:55:07;;;;;;;5.18;3.17;;;;;;;15.52;100.00;98273.44;6360796;28;20051;-73
2023/10/27 00:58:09;;;;;;;;;;;;;;;15.56;100.00;98287.06;6367550;28;20070;-73
2023/10/27 01:01:15;;;;;;;10.43;3.50;;;;;;;15.32;100.00;98288.78;6369745;27;20363;-74
2023/10/27 01:04:16;;;;;;;6.10;3.10;;;;;;;15.42;100.00;98278.91;6363181;27;20054;-73
2023/10/27 01:07:17;;;;;;;7.20;2.80;;;;;;;15.38;100.00;98285.50;6361661;28;20087;-73
2023/10/27 01:10:19;;;;;;;9.75;3.65;;;;;;;15.47;100.00;98273.16;6370013;28;20095;-73
2023/10/27 01:13:20;;;;;;;6.05;2.88;;;;;;;15.55;100.00;98265.25;6371612;27;20051;-73
2023/10/27 01:16:22;;;;;;;4.18;2.92;;;;;;;15.56;100.00;98261.59;6349193;27;20075;-72
2023/10/27 01:19:23;;;;;;;5.82;2.80;;;;;;;15.52;100.00;98250.63;6350171;28;20395;-73
2023/10/27 01:22:24;;;;;;;10.38;3.00;;;;;;;15.61;100.00;98242.72;6351635;28;20050;-74
2023/10/27 01:25:25;;;;;;;5.55;2.75;;;;;;;15.63;100.00;98243.38;6350809;28;20047;-72
2023/10/27 01:28:26;;;;;;;8.80;3.55;;;;;;;15.58;100.00;98235.97;6351105;27;20055;-73
2023/10/27 01:31:29;;;;;;;3.55;2.70;;;;;;;15.51;100.00;98243.72;6376408;27;20051;-73
2023/10/27 01:34:32;;;;;;;5.32;2.75;;;;;;;15.57;100.00;98236.16;6363376;27;20043;-73
2023/10/27 01:37:33;;;;;;;6.57;2.70;;;;;;;15.63;100.00;98233.66;6363979;27;20054;-72
2023/10/27 01:40:34;;;;;;;12.30;3.33;;;;;;;15.65;100.00;98236.94;6364384;27;20043;-73
2023/10/27 01:43:35;;;;;;;5.05;2.97;;;;;;;15.69;100.00;98229.53;6354736;27;20050;-73
2023/10/27 01:46:36;;;;;;;4.97;3.10;;;;;;;15.57;100.00;98221.19;6358627;27;20058;-73
2023/10/27 01:49:39;;;;;;;6.13;2.97;;;;;;;15.48;100.00;98219.56;6366053;27;20058;-73
2023/10/27 01:52:41;;;;;;;7.88;2.85;;;;;;;15.43;100.00;98214.03;6373517;27;20462;-74
2023/10/27 01:55:42;;;;;;;7.15;3.15;;;;;;;15.50;100.00;98202.66;6368978;27;20047;-72
2023/10/27 01:58:44;;;;;;;5.82;3.38;;;;;;;15.60;100.00;98199.00;6376046;27;20617;-73
2023/10/27 02:01:45;;;;;;;6.03;3.25;;;;;;;15.55;100.00;98207.41;6358209;27;20395;-74
2023/10/27 02:04:46;;;;;;;5.90;2.83;;;;;;;15.46;100.00;98200.53;6365220;27;20063;-73
2023/10/27 02:07:47;;;;;;;6.47;2.80;;;;;;;15.47;100.00;98197.75;6361284;27;20058;-73
2023/10/27 02:10:48;;;;;;;9.73;3.42;;;;;;;15.32;100.00;98202.88;6375159;27;20055;-74
2023/10/27 02:13:49;;;;;;;5.88;3.33;;;;;;;15.34;100.00;98200.09;6371817;27;20042;-73
2023/10/27 02:16:50;;;;;;;5.30;3.38;;;;;;;15.39;100.00;98195.13;6359978;27;20051;-74
2023/10/27 02:19:54;;;;;;;5.05;3.50;;;;;;;15.42;100.00;98199.22;6367208;27;20054;-73
2023/10/27 02:22:55;;;;;;;6.82;3.10;;;;;;;15.30;100.00;98198.78;6355798;27;20039;-73
2023/10/27 02:26:00;;;;;;;6.55;3.17;;;;;;;15.32;100.00;98202.88;6369588;27;20661;-73
2023/10/27 02:29:01;;;;;;;6.78;3.90;;;;;;;15.43;100.00;98199.06;6358773;27;20043;-73
2023/10/27 02:32:04;;;;;;;10.70;3.22;;;;;;;15.44;100.00;98210.38;6365643;27;20051;-72
2023/10/27 02:35:06;;;;;;;6.43;3.35;;;;;;;15.39;100.00;98210.09;6361857;27;20079;-73
2023/10/27 02:38:10;;;;;;;7.82;3.78;;;;;;;15.52;100.00;98207.72;6355177;27;20054;-73
2023/10/27 02:41:13;;;;;;;7.07;3.25;;;;;;;15.63;100.00;98223.16;6373903;27;20047;-72
2023/10/27 02:44:14;;;;;;;4.75;3.10;;;;;;;15.57;100.00;98225.66;6358613;27;20050;-72
2023/10/27 02:47:15;;;;;;;5.38;3.25;;;;;;;15.54;100.00;98221.53;6372690;27;20047;-72
2023/10/27 02:50:17;;;;;;;7.60;3.03;;;;;;;15.55;100.00;98220.56;6350895;27;20121;-73
2023/10/27 02:53:18;;;;;;;6.10;3.38;;;;;;;15.64;100.00;98221.34;6347208;28;20096;-73
2023/10/27 02:56:22;;;;;;;5.28;3.28;;;;;;;15.68;100.00;98212.94;6350914;27;20051;-73
2023/10/27 02:59:22;;;;;;;7.10;3.30;;;;;;;15.65;100.00;98218.53;6364340;27;20050;-74
2023/10/27 03:02:27;;;;;;;7.00;3.45;;;;;;;15.66;100.00;98222.78;6357329;27;20051;-72
2023/10/27 03:05:31;;;;;;;6.25;3.28;;;;;;;15.61;100.00;98214.63;6346910;28;20063;-73
2023/10/27 03:08:34;;;;;;;6.00;3.00;;;;;;;15.61;100.00;98213.81;6346644;28;20051;-73
2023/10/27 03:11:35;;;;;;;7.68;3.53;;;;;;;15.55;100.00;98206.59;6346727;28;20047;-74
2023/10/27 03:14:37;;;;;;;5.88;3.20;;;;;;;15.50;100.00;98197.41;6346607;28;20055;-74
2023/10/27 03:17:37;;;;;;;5.90;3.20;;;;;;;15.53;100.00;98198.88;6348165;28;20052;-74
2023/10/27 03:20:38;;;;;;;8.48;3.75;;;;;;;15.54;100.00;98195.25;6346512;28;20105;-74
2023/10/27 03:23:39;;;;;;;11.82;3.60;;;;;;;15.48;100.00;98191.50;6359635;27;20047;-74
2023/10/27 03:26:42;;;;;;;5.57;3.50;;;;;;;15.47;100.00;98192.47;6371817;27;20119;-74
2023/10/27 03:29:45;;;;;;;9.25;3.83;;;;;;;15.49;100.00;98190.50;6373053;27;20402;-73
2023/10/27 03:32:46;;;;;;;7.38;3.70;;;;;;;15.43;100.00;98198.25;6359277;27;20040;-74
2023/10/27 03:35:47;;;;;;;4.80;3.22;;;;;;;15.51;100.00;98190.34;6347568;28;20047;-74
2023/10/27 03:38:48;;;;;;;5.30;3.22;;;;;;;15.43;100.00;98185.13;6359441;27;20410;-74
2023/10/27 03:41:49;;;;;;;8.20;3.53;;;;;;;15.45;100.00;98181.31;6371312;27;20043;-74
2023/10/27 03:44:50;;;;;;;5.30;3.00;;;;;;;15.43;100.00;98182.50;6371504;27;20051;-74
2023/10/27 03:47:53;;;;;;;5.93;3.47;;;;;;;15.41;100.00;98187.09;6354481;27;20555;-74
2023/10/27 03:50:54;;;;;;;5.72;3.25;;;;;;;15.45;100.00;98188.41;6346949;28;20495;-74
2023/10/27 03:53:55;;;;;;;6.13;3.08;;;;;;;15.35;100.00;98172.81;6345571;28;20404;-74
2023/10/27 03:56:56;;;;;;;7.53;3.47;;;;;;;15.36;100.00;98171.00;6345868;28;20051;-74
2023/10/27 03:59:57;;;;;;;5.68;3.08;;;;;;;15.36;100.00;98169.22;6354651;27;20096;-75
2023/10/27 04:03:00;;;;;;;9.25;3.40;;;;;;;15.46;100.00;98163.72;6361346;27;20039;-75
2023/10/27 04:06:06;;;;;;;7.57;2.95;;;;;;;15.34;100.00;98160.69;6364695;27;20043;-74
2023/10/27 04:09:07;;;;;;;5.63;3.13;;;;;;;15.43;100.00;98151.75;6362494;27;20050;-75
2023/10/27 04:12:08;;;;;;;5.68;3.08;;;;;;;15.36;100.00;98148.19;6355380;27;20078;-74
2023/10/27 04:15:10;;;;;;;10.13;3.15;;;;;;;15.30;100.00;98147.06;6356740;27;20048;-74
2023/10/27 04:18:11;;;;;;;3.45;2.30;;;;;;;15.31;100.00;98134.72;6344620;27;20510;-74
2023/10/27 04:21:12;;;;;;;10.03;3.03;;;;;;;15.43;100.00;98138.63;6353042;27;20134;-74
2023/10/27 04:24:12;;;;;;;6.57;2.90;;;;;;;15.37;100.00;98131.44;6365252;27;20053;-75
2023/10/27 04:27:13;;;;;;;3.53;2.17;;;;;;;15.32;100.00;98139.00;6362563;27;20430;-74
2023/10/27 04:30:15;;;;;;;4.63;2.15;;;;;;;15.45;100.00;98135.84;6347256;27;20093;-74
2023/10/27 04:33:16;;;;;;;6.25;2.35;;;;;;;15.47;100.00;98121.53;6361436;27;20073;-74
2023/10/27 04:36:17;;;;;;;7.45;2.35;;;;;;;15.49;100.00;98124.00;6354832;27;20051;-75
2023/10/27 04:39:20;;;;;;;2.10;1.85;;;;;;;15.42;100.00;98117.75;6351251;27;20046;-75
2023/10/27 04:42:22;;;;;;;4.13;2.20;;;;;;;15.45;100.00;98120.88;6353132;27;20067;-75
2023/10/27 04:45:23;;;;;;;4.57;2.03;;;;;;;15.36;100.00;98119.28;6350600;28;20063;-74
2023/10/27 04:48:27;;;;;;;3.10;2.25;;;;;;;15.41;100.00;98110.88;6356752;28;20414;-75
2023/10/27 04:51:33;;;;;;;4.03;1.77;;;;;;;15.25;100.00;98107.31;6361404;27;20088;-74
2023/10/27 04:54:34;;;;;;;4.40;2.17;;;;;;;15.54;100.00;98105.88;6375583;27;20051;-74
2023/10/27 04:57:36;;;;;;;5.53;2.67;;;;;;;15.54;100.00;98107.69;6376955;27;20133;-74
2023/10/27 05:00:37;;;;;;;2.72;1.83;;;;;;;15.66;100.00;98108.94;6362299;27;20427;-75
2023/10/27 05:03:38;;;;;;;3.17;1.88;;;;;;;15.54;100.00;98107.69;6362369;27;20130;-74
2023/10/27 05:06:41;;;;;;;3.95;1.60;;;;;;;15.61;100.00;98111.28;6367572;27;20067;-74
2023/10/27 05:09:44;;;;;;;6.43;1.60;;;;;;;15.57;100.00;98102.91;6375382;27;20509;-74
2023/10/27 05:12:45;;;;;;;4.10;1.50;;;;;;;15.56;100.00;98106.53;6351933;27;20127;-74
2023/10/27 05:15:55;;;;;;;1.98;1.30;;;;;;;15.62;100.00;98105.03;6351040;28;20092;-74
2023/10/27 05:19:01;;;;;;;2.50;1.55;;;;;;;15.43;100.00;98101.03;6354146;27;20047;-74
2023/10/27 05:22:05;;;;;;;1.58;1.38;;;;;;;15.45;100.00;98106.94;6349520;28;20130;-74
2023/10/27 05:25:06;;;;;;;4.82;1.63;;;;;;;15.61;100.00;98113.91;6366101;27;20545;-73
2023/10/27 05:28:09;;;;;;;2.00;1.40;;;;;;;15.45;100.00;98106.94;6350647;28;20060;-74
2023/10/27 05:31:12;;;;;;;1.75;1.30;;;;;;;15.45;100.00;98113.00;6349260;28;20347;-74
2023/10/27 05:34:15;;;;;;;3.97;1.77;;;;;;;15.46;100.00;98114.66;6350434;28;20043;-75
2023/10/27 05:37:20;;;;;;;2.47;1.40;;;;;;;15.48;100.00;98117.06;6350326;28;20043;-76
2023/10/27 05:40:23;;;;;;;7.13;1.73;;;;;;;15.52;100.00;98116.59;6349886;28;20047;-75
2023/10/27 05:43:25;;;;;;;1.73;1.55;;;;;;;15.38;100.00;98114.69;6348920;28;20051;-75
2023/10/27 05:46:28;;;;;;;4.03;1.95;;;;;;;15.44;100.00;98123.66;6349843;28;20051;-75
2023/10/27 05:49:32;;;;;;;3.55;2.30;;;;;;;15.31;100.00;98118.97;6348552;28;20052;-76
2023/10/27 05:52:33;;;;;;;4.55;3.00;;;;;;;15.42;100.00;98115.97;6349648;28;20399;-76
2023/10/27 05:55:34;;;;;;;7.47;3.07;;;;;;;15.39;100.00;98116.31;6349949;28;20050;-75
2023/10/27 05:58:35;;;;;;;6.30;3.20;;;;;;;15.47;100.00;98111.00;6349578;27;20560;-75
2023/10/27 06:01:36;;;;;;;6.50;3.53;;;;;;;15.35;100.00;98101.06;6348502;28;20043;-75
2023/10/27 06:04:39;;;;;;;5.28;3.38;;;;;;;15.48;100.00;98114.44;6347940;28;20059;-75
2023/10/27 06:07:40;;;;;;;11.05;3.15;;;;;;;15.44;100.00;98102.66;6349330;28;20055;-76
2023/10/27 06:10:43;;;;;;;5.50;3.13;;;;;;;15.44;100.00;98100.84;6348459;28;20188;-75
2023/10/27 06:13:45;;;;;;;4.85;3.10;;;;;;;15.43;100.00;98093.94;6349210;28;20090;-75
2023/10/27 06:16:45;;;;;;;6.20;3.38;;;;;;;15.62;100.00;98097.94;6348148;28;20479;-75
2023/10/27 06:19:46;;;;;;;8.45;2.83;;;;;;;15.51;100.00;98099.16;6347807;28;20052;-75
2023/10/27 06:22:47;;;;;;;5.93;3.20;;;;;;;15.43;100.00;98099.19;6348133;28;20048;-75
2023/10/27 06:25:48;;;;;;;7.65;3.65;;;;;;;15.58;100.00;98091.41;6349042;28;20128;-75
2023/10/27 06:28:49;;;;;;;4.63;3.03;;;;;;;15.54;100.00;98086.66;6348797;27;20079;-75
2023/10/27 06:31:50;;;;;;;4.55;3.28;;;;;;;15.50;100.00;98092.28;6347431;28;20047;-75
2023/10/27 06:34:53;;;;;;;3.83;2.72;;;;;;;15.40;100.00;98089.06;6349004;28;20514;-75
2023/10/27 06:37:56;;;;;;;3.63;2.90;;;;;;;15.66;100.00;98083.47;6348759;28;20086;-75
2023/10/27 06:40:58;;;;;;;8.07;3.35;;;;;;;15.40;100.00;98075.06;6348392;27;20558;-75
2023/10/27 06:44:00;;;;;;;4.75;3.15;;;;;;;15.37;100.00;98076.25;6347479;28;20393;-75
2023/10/27 06:47:02;;;;;;;5.60;3.42;;;;;;;15.43;100.00;98066.84;6348499;28;20164;-75
2023/10/27 06:50:04;;;;;;;;;;;;;;;15.36;100.00;98066.75;6347544;28;20055;-75
2023/10/27 06:53:05;;;;;;;4.20;3.00;;;;;;;15.45;100.00;98062.25;6347114;28;20279;-75
2023/10/27 06:56:05;;;;;;;6.90;3.22;;;;;;;15.44;100.00;98060.59;6347589;28;20058;-75
2023/10/27 06:59:09;;;;;;;4.22;2.83;;;;;;;15.42;100.00;98057.31;6347260;28;20059;-75
2023/10/27 07:02:10;;;;;;;5.88;3.63;;;;;;;15.39;100.00;98045.34;6348498;28;20074;-75
2023/10/27 07:05:13;;;;;;;5.35;3.20;;;;;;;15.34;100.00;98052.13;6346914;28;20056;-75
2023/10/27 07:08:14;;;;;;;6.28;3.28;;;;;;;15.43;100.00;98049.28;6347980;28;20411;-75
2023/10/27 07:11:15;;;;;;;4.45;3.05;;;;;;;15.45;100.00;98044.66;6346711;28;20047;-75
2023/10/27 07:14:19;;;;;;;4.03;2.60;;;;;;;15.39;100.00;98040.09;6345734;28;20391;-75
2023/10/27 07:17:22;;;;;;;8.43;3.58;;;;;;;15.45;100.00;98031.53;6346707;28;20047;-75
2023/10/27 07:20:23;;;;;;;4.13;2.95;;;;;;;15.63;100.00;98038.31;6346397;28;20050;-75
2023/10/27 07:23:28;;;;;;;3.60;2.53;;;;;;;15.45;100.00;98033.34;6346682;28;20065;-75
2023/10/27 07:26:29;;;;;;;6.32;2.50;;;;;;;15.46;100.00;98024.44;6347659;28;20047;-75
2023/10/27 07:29:31;;;;;;;3.67;2.35;;;;;;;15.47;100.00;98013.78;6347789;28;20047;-75
2023/10/27 07:32:35;;;;;;;3.00;2.15;;;;;;;15.56;100.00;98008.47;6346317;28;20043;-75
2023/10/27 07:35:36;;;;;;;2.38;1.88;;;;;;;15.54;100.00;98005.19;6346559;28;20047;-75
2023/10/27 07:38:37;;;;;;;4.55;2.05;;;;;;;15.57;100.00;97999.59;6346172;28;20048;-75
2023/10/27 07:41:38;;;;;;;3.53;2.35;;;;;;;15.61;100.00;97987.75;6346399;28;20054;-75
2023/10/27 07:44:42;;;;;;;3.50;2.42;;;;;;;15.42;100.00;97989.00;6346004;28;20043;-75
2023/10/27 07:47:45;;;;;;;4.82;2.80;;;;;;;15.48;100.00;97981.25;6346177;28;20054;-75
2023/10/27 07:50:46;;;;;;;2.72;2.53;;;;;;;15.48;100.00;97985.66;6346103;28;20051;-75
2023/10/27 07:53:49;;;;;;;4.82;2.92;;;;;;;15.41;100.00;97984.75;6346919;28;20055;-75
2023/10/27 07:56:50;;;;;;;4.03;2.83;;;;;;;15.42;100.00;97981.97;6345926;28;20051;-74
2023/10/27 07:59:51;;;;;;;5.10;3.58;;;;;;;15.46;100.00;97980.63;6345535;28;20127;-75
2023/10/27 08:02:54;;;;;;;7.85;3.75;;;;;;;15.36;100.00;97971.31;6345846;28;20054;-75
2023/10/27 08:05:57;;;;;;;5.20;3.15;;;;;;;15.37;100.00;97971.13;6345428;28;20055;-75
2023/10/27 08:08:59;;;;;;;3.85;2.65;;;;;;;15.42;100.00;97955.69;6345525;28;20173;-75
2023/10/27 08:12:03;;;;;;;6.87;2.80;;;;;;;15.44;100.00;97951.06;6346585;28;20058;-75
2023/10/27 08:15:07;;;;;;;5.22;3.15;;;;;;;15.36;100.00;97950.28;6345396;28;20396;-75
2023/10/27 08:18:10;;;;;;;4.68;3.10;;;;;;;15.16;100.00;97948.13;6346832;28;20047;-75
2023/10/27 08:21:11;;;;;;;3.75;2.97;;;;;;;15.22;100.00;97938.75;6346405;28;20484;-75
2023/10/27 08:24:13;;;;;;;5.38;3.05;;;;;;;15.22;100.00;97923.78;6346301;28;20040;-75
2023/10/27 08:27:13;;;;;;;5.32;2.70;;;;;;;15.17;100.00;97915.59;6344891;28;20055;-75
2023/10/27 08:30:15;;;;;;;4.80;2.85;;;;;;;15.03;100.00;97911.09;6346344;28;20527;-75
2023/10/27 08:33:15;;;;;;;8.75;3.17;;;;;;;15.31;100.00;97893.00;6362010;27;20071;-75
2023/10/27 08:36:19;;;;;;;6.40;2.47;;;;;;;15.31;100.00;97893.81;6346333;28;20484;-75
2023/10/27 08:39:20;;;;;;;7.72;3.00;;;;;;;15.10;100.00;97875.28;6345944;28;20506;-75
2023/10/27 08:42:23;;;;;;;4.68;2.58;;;;;;;15.15;100.00;97872.94;6344872;28;20044;-75
2023/10/27 08:45:27;;;;;;;5.60;2.67;;;;;;;15.14;100.00;97883.63;6346003;28;20090;-75
2023/10/27 08:48:28;;;;;;;4.32;2.70;;;;;;;15.11;100.00;97884.78;6345022;28;20100;-75
2023/10/27 08:51:31;;;;;;;3.30;2.50;;;;;;;15.07;100.00;97876.47;6344600;28;20109;-75
2023/10/27 08:54:32;;;;;;;4.97;2.40;;;;;;;15.15;100.00;97872.94;6345949;28;20081;-75
2023/10/27 08:57:34;;;;;;;4.10;2.33;;;;;;;15.16;100.00;97860.63;6345987;28;20044;-75
2023/10/27 09:00:35;;;;;;;4.65;2.58;;;;;;;15.22;100.00;97849.44;6344476;28;20431;-75
2023/10/27 09:03:36;;;;;;;4.63;2.55;;;;;;;15.21;100.00;97853.03;6345836;28;20101;-76
2023/10/27 09:06:40;;;;;;;5.88;2.50;;;;;;;15.43;100.00;97861.88;6345691;28;20063;-75
2023/10/27 09:09:41;;;;;;;3.60;2.17;;;;;;;15.17;100.00;97849.94;6345745;28;20074;-75
2023/10/27 09:12:42;;;;;;;2.70;2.10;;;;;;;15.36;100.00;97832.88;6345614;28;20505;-75
2023/10/27 09:15:49;;;;;;;5.28;2.63;;;;;;;15.38;100.00;97838.78;6344754;28;20086;-75
2023/10/27 09:18:51;;;;;;;4.72;2.30;;;;;;;15.34;100.00;97845.38;6345672;28;20053;-75
2023/10/27 09:21:53;;;;;;;7.80;2.40;;;;;;;15.43;100.00;97841.66;6345795;28;20048;-75
2023/10/27 09:25:11;;;;;;;;;;;;;;;15.36;100.00;97829.41;6344892;28;20507;-75
2023/10/27 09:28:11;;;;;;;3.75;2.20;;;;;;;15.46;100.00;97822.09;6344312;28;20054;-75
2023/10/27 09:31:31;;;;;;;3.47;2.40;;;;;;;15.54;100.00;97819.38;6345455;28;20418;-75
2023/10/27 09:34:35;;;;;;;5.07;2.50;;;;;;;15.29;100.00;97806.47;6344396;28;20055;-75
2023/10/27 09:37:37;;;;;;;3.72;2.30;;;;;;;15.44;100.00;97797.81;6344926;28;20172;-75
2023/10/27 09:40:39;;;;;;;4.80;2.20;;;;;;;15.37;100.00;97789.03;6349363;28;20055;-75
2023/10/27 09:43:41;;;;;;;7.45;2.40;;;;;;;15.47;100.00;97792.22;6350265;28;20070;-75
2023/10/27 09:46:46;;;;;;;;;;;;;;;15.38;100.00;97777.50;6349336;28;20055;-75
2023/10/27 09:49:54;;;;;;;6.85;2.55;;;;;;;15.48;100.00;97781.53;6350084;28;19931;-75
2023/10/27 09:53:00;;;;;;;2.15;1.60;;;;;;;15.60;100.00;97776.63;6348675;28;20116;-75
2023/10/27 09:56:04;;;;;;;3.78;1.88;;;;;;;15.70;100.00;97765.84;6348756;28;20051;-75
2023/10/27 09:59:06;;;;;;;3.67;2.05;;;;;;;15.66;100.00;97752.22;6349982;28;20043;-75
2023/10/27 10:02:07;;;;;;;;;;;;;;;15.76;100.00;97748.56;6350152;28;20415;-75
2023/10/27 10:05:09;;;;;;;1.90;1.60;;;;;;;15.75;100.00;97749.53;6348427;28;19932;-75
2023/10/27 10:08:10;;;;;;;7.88;1.88;;;;;;;15.73;100.00;97752.38;6349511;28;20082;-75
2023/10/27 10:11:16;;;;;;;3.28;1.98;;;;;;;15.84;100.00;97738.75;6348220;28;20087;-75
2023/10/27 10:14:36;;;;;;;3.00;1.67;;;;;;;15.68;100.00;97720.50;6348240;28;20051;-75
2023/10/27 10:17:40;;;;;;;3.15;1.67;;;;;;;15.76;100.00;97715.19;6348099;28;20044;-75
2023/10/27 10:20:41;;;;;;;5.38;1.75;;;;;;;15.77;100.00;97714.16;6349311;28;20575;-76
2023/10/27 10:23:44;;;;;;;3.60;1.85;;;;;;;15.79;100.00;97714.00;6347921;28;20206;-76
2023/10/27 10:27:07;;;;;;;1.77;1.63;;;;;;;15.74;100.00;97724.25;6349354;28;20082;-76
2023/10/27 10:30:21;;;;;;;3.25;2.00;;;;;;;15.85;100.00;97710.63;6347787;28;20052;-76
2023/10/27 10:33:24;;;;;;;7.05;1.95;;;;;;;15.68;100.00;97723.16;6347693;28;20050;-75
2023/10/27 10:36:28;;;;;;;2.67;1.67;;;;;;;15.65;100.00;97713.81;6347543;28;20073;-75
2023/10/27 10:40:10;;;;;;;2.90;1.98;;;;;;;15.77;100.00;97703.66;6347710;28;20060;-75
2023/10/27 10:43:19;;;;;;;2.38;1.95;;;;;;;15.91;100.00;97692.28;6348472;27;20083;-75
2023/10/27 10:46:31;;;;;;;2.58;1.92;;;;;;;15.76;100.00;97686.28;6348630;28;20138;-75
2023/10/27 10:49:36;;;;;;;3.15;2.28;;;;;;;15.94;100.00;97677.97;6362299;27;20122;-76
2023/10/27 10:52:37;;;;;;;2.70;1.90;;;;;;;15.78;100.00;97668.50;6355802;27;20055;-75
2023/10/27 10:55:40;;;;;;;4.90;1.80;;;;;;;15.71;100.00;97667.59;6369611;27;20059;-75
2023/10/27 10:58:44;;;;;;;3.92;2.50;;;;;;;15.82;100.00;97656.59;6374223;27;20043;-75
2023/10/27 11:01:45;;;;;;;7.47;2.75;;;;;;;15.87;100.00;97661.31;6373709;27;20043;-75
2023/10/27 11:04:47;;;;;;;5.90;2.58;;;;;;;15.89;100.00;97649.59;6373513;27;20418;-75
2023/10/27 11:07:48;;;;;;;3.13;1.88;;;;;;;15.97;100.00;97658.38;6372224;27;20093;-75
2023/10/27 11:11:00;;;;;;;2.65;1.65;;;;;;;16.02;100.00;97625.28;6372434;27;20051;-75
2023/10/27 11:14:04;;;;;;;2.17;1.55;;;;;;;16.08;100.00;97627.16;6372312;27;20172;-74
2023/10/27 11:17:05;;;;;;;3.10;1.60;;;;;;;16.03;100.00;97624.25;6372174;27;20047;-75
2023/10/27 11:20:11;;;;;;;3.20;1.57;;;;;;;15.93;100.00;97607.97;6372055;27;20047;-75
2023/10/27 11:23:14;;;;;;;2.80;1.60;;;;;;;15.91;100.00;97616.03;6371901;27;20043;-75
2023/10/27 11:26:19;;;;;;;2.70;2.00;;;;;;;16.02;100.00;97603.38;6371861;27;20181;-75
2023/10/27 11:40:21;;;;;;;7.43;1.75;;;;;;;16.40;100.00;97588.16;6343698;27;20409;-74
2023/10/27 11:43:23;;;;;;;2.80;1.52;;;;;;;16.37;100.00;97582.44;6342758;28;20047;-74
2023/10/27 11:46:24;;;;;;;1.27;1.17;;;;;;;16.38;100.00;97563.84;6343646;28;20180;-74
2023/10/27 11:49:27;;;;;;;3.92;1.25;;;;;;;16.30;100.00;97572.69;6343737;28;20102;-73
2023/10/27 11:52:28;;;;;;;5.40;1.52;;;;;;;16.26;100.00;97566.16;6343549;28;20044;-74
2023/10/27 11:55:28;;;;;;;2.30;1.30;;;;;;;16.32;100.00;97564.59;6343605;28;20059;-74
2023/10/27 11:58:30;;;;;;;2.97;1.75;;;;;;;16.39;100.00;97556.75;6343831;28;20104;-74
2023/10/27 12:01:31;;;;;;;3.00;1.60;;;;;;;16.44;100.00;97551.75;6342396;28;20086;-74
2023/10/27 12:04:35;;;;;;;2.03;1.23;;;;;;;16.36;100.00;97554.50;6343468;28;20060;-73
2023/10/27 12:07:36;;;;;;;5.05;1.60;;;;;;;16.44;100.00;97536.75;6342906;28;20288;-74
2023/10/27 12:10:37;;;;;;;2.28;1.40;;;;;;;16.36;100.00;97539.53;6341946;28;20506;-74
2023/10/27 12:13:41;;;;;;;2.78;1.63;;;;;;;16.41;100.00;97523.16;6343002;28;20078;-75
2023/10/27 12:16:42;;;;;;;1.50;1.15;;;;;;;16.43;100.00;97521.16;6343211;28;20054;-73
2023/10/27 12:19:44;;;;;;;3.20;1.63;;;;;;;16.65;100.00;97533.25;6342896;28;20085;-75
2023/10/27 12:22:48;;;;;;;3.75;1.35;;;;;;;16.50;100.00;97540.44;6342061;28;20051;-73
2023/10/27 12:25:49;;;;;;;1.60;1.15;;;;;;;16.40;100.00;97529.44;6341590;28;20586;-74
2023/10/27 12:28:50;;;;;;;2.53;1.40;;;;;;;16.41;100.00;97531.06;6342592;28;20505;-74
2023/10/27 12:31:55;;;;;;;1.75;1.60;;;;;;;16.47;100.00;97531.13;6341391;28;20392;-75
2023/10/27 12:34:56;;;;;;;3.90;1.25;;;;;;;16.57;100.00;97543.13;6341574;28;20048;-74
2023/10/27 12:37:57;;;;;;;2.88;1.33;;;;;;;16.52;100.00;97526.09;6319765;28;20106;-75
2023/10/27 12:40:58;;;;;;;6.00;1.70;;;;;;;16.51;100.00;97519.19;6223815;28;20382;-74
2023/10/27 12:44:00;;;;;;;3.53;1.52;;;;;;;16.50;100.00;97504.41;6222255;28;20085;-75
2023/10/27 12:47:02;;;;;;;;;;;;;;;16.48;100.00;97498.53;6241206;28;20050;-75
2023/10/27 12:50:04;;;;;;;3.85;1.58;;;;;;;16.47;100.00;97489.00;6263342;28;19928;-74
2023/10/27 12:53:06;;;;;;;2.67;1.67;;;;;;;16.43;100.00;97487.78;6293712;28;20490;-74
2023/10/27 12:56:07;;;;;;;3.22;2.05;;;;;;;16.54;100.00;97493.50;6273334;28;20054;-74
2023/10/27 12:59:09;;;;;;;1.60;1.40;;;;;;;16.61;100.00;97476.72;6220074;28;20061;-76
2023/10/27 13:02:11;;;;;;;2.50;1.30;;;;;;;16.55;100.00;97459.06;6220357;28;20092;-76
2023/10/27 13:05:16;;;;;;;4.10;1.70;;;;;;;16.64;100.00;97450.00;6221225;28;20422;-74
2023/10/27 13:08:17;;;;;;;7.35;1.38;;;;;;;16.58;100.00;97452.63;6219940;28;20408;-74
2023/10/27 13:11:18;;;;;;;2.28;1.05;;;;;;;16.71;100.00;97447.41;6221243;28;20060;-75
2023/10/27 13:14:21;;;;;;;5.53;1.65;;;;;;;16.83;100.00;97463.50;6260144;28;20169;-75
2023/10/27 13:17:22;;;;;;;1.25;1.15;;;;;;;16.86;100.00;97442.84;6286956;28;20171;-75
2023/10/27 13:20:23;;;;;;;3.83;1.57;;;;;;;16.89;100.00;97410.84;6300538;28;20061;-72
2023/10/27 13:23:24;;;;;;;2.25;1.50;;;;;;;17.01;100.00;97411.09;6218442;28;20447;-75
2023/10/27 13:26:25;;;;;;;8.52;1.50;;;;;;;17.04;100.00;97407.22;6343224;28;20058;-74
2023/10/27 13:29:26;;;;;;;3.55;1.55;;;;;;;17.08;100.00;97404.00;6348119;28;20044;-75
2023/10/27 13:32:28;;;;;;;9.10;4.72;;;;;;;17.02;100.00;97404.78;6331243;28;20096;-75
2023/10/27 13:35:29;;;;;;;3.42;2.63;;;;;;;17.01;100.00;97376.03;6219851;28;20473;-75
2023/10/27 13:38:30;;;;;;;7.93;3.10;;;;;;;17.08;100.00;97385.56;6220310;28;20065;-75
2023/10/27 13:41:34;;;;;;;6.72;2.97;;;;;;;17.11;100.00;97365.88;6219671;28;20054;-74
2023/10/27 13:44:38;;;;;;;11.48;6.60;;;;;;;17.23;100.00;97359.00;6220308;28;20092;-75
2023/10/27 13:47:38;;;;;;;3.75;2.83;;;;;;;17.21;100.00;97374.22;6220044;28;20378;-75
2023/10/27 13:50:39;;;;;;;13.45;8.35;;;;;;;17.23;100.00;97368.75;6284183;28;20051;-75
2023/10/27 13:53:44;;;;;;;5.50;1.35;;;;;;;17.15;100.00;97380.28;6346593;28;20050;-75
2023/10/27 13:56:45;;;;;;;3.83;1.15;;;;;;;17.21;100.00;97354.97;6347199;28;20441;-74
2023/10/27 13:59:46;;;;;;;6.90;1.50;;;;;;;17.29;100.00;97371.38;6347009;28;20089;-74
2023/10/27 14:02:47;;;;;;;4.28;2.20;;;;;;;17.44;100.00;97376.47;6345922;28;20051;-75
2023/10/27 14:05:51;;;;;;;6.18;1.40;;;;;;;17.38;100.00;97372.03;6346792;28;20138;-74
2023/10/27 14:08:52;;;;;;;3.03;1.17;;;;;;;17.32;100.00;97375.47;6308353;28;20103;-75
2023/10/27 14:11:53;;;;;;;2.70;1.25;;;;;;;17.44;100.00;97386.19;6219147;28;20516;-74
2023/10/27 14:14:58;;;;;;;5.47;1.45;;;;;;;17.44;100.00;97394.09;6219417;28;20402;-74
2023/10/27 14:18:00;;;;;;;1.75;1.17;;;;;;;17.52;100.00;97396.53;6220586;28;20049;-75
2023/10/27 14:21:01;;;;;;;1.67;1.07;;;;;;;17.47;100.00;97393.72;6219999;28;20099;-74